createdAt,value
2018-05-29T00:00:27.151Z,16.50
2018-05-29T00:02:55.437Z,16.30
2018-05-29T00:05:23.702Z,16.30
2018-05-29T00:07:51.988Z,16.10
2018-05-29T00:10:20.261Z,16.00
2018-05-29T00:12:47.785Z,16.00
2018-05-29T00:15:15.449Z,16.00
2018-05-29T00:17:42.919Z,16.00
2018-05-29T00:20:10.513Z,15.90
2018-05-29T00:22:38.089Z,15.90
2018-05-29T00:25:05.610Z,16.00
2018-05-29T00:27:33.171Z,15.90
2018-05-29T00:30:01.482Z,15.80
2018-05-29T00:32:29.025Z,15.80
2018-05-29T00:34:56.546Z,15.80
2018-05-29T00:37:24.048Z,15.70
2018-05-29T00:39:51.601Z,15.70
2018-05-29T00:42:19.109Z,15.70
2018-05-29T00:44:46.632Z,15.60
2018-05-29T00:47:14.133Z,15.60
2018-05-29T00:49:41.655Z,15.60
2018-05-29T00:52:09.153Z,15.70
2018-05-29T00:54:36.673Z,15.60
2018-05-29T00:57:04.222Z,15.60
2018-05-29T00:59:31.741Z,15.50
2018-05-29T01:02:00.019Z,15.40
2018-05-29T01:04:28.314Z,15.50
2018-05-29T01:06:56.585Z,15.50
2018-05-29T01:09:24.869Z,15.60
2018-05-29T01:11:52.385Z,15.50
2018-05-29T01:14:19.901Z,15.60
2018-05-29T01:16:47.400Z,15.60
2018-05-29T01:19:14.921Z,15.70
2018-05-29T01:21:42.474Z,15.70
2018-05-29T01:24:09.993Z,15.80
2018-05-29T01:26:37.497Z,15.80
2018-05-29T01:29:05.041Z,15.80
2018-05-29T01:31:32.537Z,15.70
2018-05-29T01:34:00.067Z,15.70
2018-05-29T01:36:27.567Z,15.60
2018-05-29T01:38:55.095Z,15.70
2018-05-29T01:41:22.606Z,15.90
2018-05-29T01:43:50.893Z,15.60
2018-05-29T01:46:19.160Z,15.50
2018-05-29T01:48:47.460Z,15.50
2018-05-29T01:51:15.026Z,15.50
2018-05-29T01:53:42.549Z,15.50
2018-05-29T01:56:10.054Z,15.50
2018-05-29T01:58:37.582Z,15.50
2018-05-29T02:01:05.849Z,15.20
2018-05-29T02:03:34.134Z,15.20
2018-05-29T02:06:02.402Z,15.30
2018-05-29T02:08:30.697Z,15.30
2018-05-29T02:10:58.200Z,15.20
2018-05-29T02:13:25.710Z,15.20
2018-05-29T02:15:53.373Z,15.10
2018-05-29T02:18:20.873Z,15.10
2018-05-29T02:20:48.392Z,15.20
2018-05-29T02:23:16.161Z,15.10
2018-05-29T02:25:43.717Z,15.00
2018-05-29T02:28:11.229Z,14.90
2018-05-29T02:30:39.522Z,14.80
2018-05-29T02:33:07.934Z,14.80
2018-05-29T02:35:35.461Z,14.80
2018-05-29T02:38:03.734Z,14.80
2018-05-29T02:40:32.022Z,14.80
2018-05-29T02:43:00.295Z,14.70
2018-05-29T02:45:28.577Z,14.80
2018-05-29T02:47:56.153Z,14.80
2018-05-29T02:50:23.672Z,14.80
2018-05-29T02:52:52.681Z,14.80
2018-05-29T02:55:21.348Z,14.80
2018-05-29T02:57:48.841Z,14.80
2018-05-29T03:00:16.357Z,14.70
2018-05-29T03:02:44.681Z,14.60
2018-05-29T03:05:12.209Z,14.60
2018-05-29T03:07:39.922Z,14.60
2018-05-29T03:10:07.443Z,14.60
2018-05-29T03:12:35.718Z,14.60
2018-05-29T03:15:04.002Z,14.60
2018-05-29T03:17:32.661Z,14.50
2018-05-29T03:20:00.180Z,14.50
2018-05-29T03:22:27.685Z,14.60
2018-05-29T03:24:55.210Z,14.50
2018-05-29T03:27:22.705Z,14.60
2018-05-29T03:29:51.003Z,14.60
2018-05-29T03:32:18.505Z,14.60
2018-05-29T03:34:46.029Z,14.50
2018-05-29T03:37:13.534Z,14.40
2018-05-29T03:39:41.054Z,14.30
2018-05-29T03:42:08.580Z,14.30
2018-05-29T03:44:36.879Z,14.30
2018-05-29T03:47:04.390Z,14.30
2018-05-29T03:49:31.913Z,14.30
2018-05-29T03:51:59.423Z,14.30
2018-05-29T03:54:27.709Z,14.50
2018-05-29T03:56:55.980Z,14.50
2018-05-29T03:59:24.268Z,14.50
2018-05-29T04:01:52.540Z,14.60
2018-05-29T04:04:20.833Z,14.70
2018-05-29T04:06:48.341Z,14.70
2018-05-29T04:09:15.906Z,14.80
2018-05-29T04:11:43.410Z,15.00
2018-05-29T04:14:10.913Z,15.40
2018-05-29T04:16:38.429Z,16.10
2018-05-29T04:19:05.928Z,16.60
2018-05-29T04:21:33.445Z,16.70
2018-05-29T04:24:00.945Z,16.70
2018-05-29T04:26:28.557Z,16.70
2018-05-29T04:28:56.061Z,16.60
2018-05-29T04:31:23.589Z,16.50
2018-05-29T04:33:51.094Z,16.40
2018-05-29T04:36:19.382Z,16.50
2018-05-29T04:38:47.645Z,16.80
2018-05-29T04:41:15.242Z,16.70
2018-05-29T04:43:42.763Z,17.40
2018-05-29T04:46:10.293Z,17.70
2018-05-29T04:48:37.797Z,17.60
2018-05-29T04:51:06.081Z,17.40
2018-05-29T04:53:34.349Z,17.20
2018-05-29T04:56:02.636Z,17.10
2018-05-29T04:58:30.141Z,17.10
2018-05-29T05:00:57.661Z,17.20
2018-05-29T05:03:25.157Z,17.30
2018-05-29T05:05:52.673Z,17.20
2018-05-29T05:08:20.168Z,17.00
2018-05-29T05:10:47.682Z,16.70
2018-05-29T05:13:15.953Z,16.50
2018-05-29T05:15:44.245Z,16.60
2018-05-29T05:18:11.890Z,16.50
2018-05-29T05:20:39.475Z,16.80
2018-05-29T05:23:06.984Z,17.00
2018-05-29T05:25:34.511Z,17.10
2018-05-29T05:28:02.013Z,17.30
2018-05-29T05:30:30.305Z,17.70
2018-05-29T05:32:58.596Z,17.80
2018-05-29T05:35:26.175Z,17.80
2018-05-29T05:37:54.414Z,18.20
2018-05-29T05:40:21.953Z,18.10
2018-05-29T05:42:49.553Z,18.40
2018-05-29T05:45:17.214Z,18.60
2018-05-29T05:47:44.713Z,18.70
2018-05-29T05:50:12.233Z,18.40
2018-05-29T05:52:39.778Z,18.10
2018-05-29T05:55:09.949Z,17.90
2018-05-29T05:57:37.469Z,17.90
2018-05-29T06:00:04.985Z,18.00
2018-05-29T06:02:33.307Z,18.10
2018-05-29T06:05:00.821Z,18.20
2018-05-29T06:07:28.324Z,18.50
2018-05-29T06:09:55.878Z,18.70
2018-05-29T06:12:23.387Z,18.90
2018-05-29T06:14:50.886Z,19.00
2018-05-29T06:17:18.406Z,19.10
2018-05-29T06:19:45.916Z,19.40
2018-05-29T06:22:13.438Z,19.60
2018-05-29T06:24:41.709Z,20.20
2018-05-29T06:27:09.298Z,20.10
2018-05-29T06:29:36.873Z,20.70
2018-05-29T06:32:04.402Z,21.10
2018-05-29T06:34:32.673Z,21.90
2018-05-29T06:37:00.965Z,22.20
2018-05-29T06:39:28.469Z,22.10
2018-05-29T06:41:55.991Z,22.40
2018-05-29T06:44:23.497Z,22.60
2018-05-29T06:46:51.021Z,22.70
2018-05-29T06:49:19.302Z,22.30
2018-05-29T06:51:46.833Z,22.20
2018-05-29T06:54:14.342Z,22.30
2018-05-29T06:56:41.865Z,22.50
2018-05-29T06:59:09.375Z,22.50
2018-05-29T07:01:36.974Z,22.90
2018-05-29T07:04:04.489Z,22.90
2018-05-29T07:06:32.017Z,23.20
2018-05-29T07:08:59.525Z,23.40
2018-05-29T07:11:27.809Z,23.60
2018-05-29T07:13:56.089Z,23.60
2018-05-29T07:16:24.378Z,23.90
2018-05-29T07:18:51.882Z,23.90
2018-05-29T07:21:19.405Z,24.10
2018-05-29T07:23:46.909Z,23.80
2018-05-29T07:26:14.434Z,23.80
2018-05-29T07:28:41.938Z,23.70
2018-05-29T07:31:09.458Z,23.90
2018-05-29T07:33:36.968Z,23.70
2018-05-29T07:36:05.259Z,23.20
2018-05-29T07:38:32.784Z,23.30
2018-05-29T07:41:00.310Z,23.20
2018-05-29T07:43:27.814Z,22.90
2018-05-29T07:45:56.110Z,22.70
2018-05-29T07:48:23.613Z,22.70
2018-05-29T07:50:51.129Z,22.70
2018-05-29T07:53:18.626Z,22.60
2018-05-29T07:55:46.154Z,22.70
2018-05-29T07:58:13.662Z,22.90
2018-05-29T08:00:41.181Z,23.40
2018-05-29T08:03:08.680Z,24.30
2018-05-29T08:05:36.189Z,24.90
2018-05-29T08:08:03.704Z,24.60
2018-05-29T08:10:31.230Z,24.40
2018-05-29T08:12:58.759Z,24.60
2018-05-29T08:15:26.265Z,25.10
2018-05-29T08:17:53.789Z,25.50
2018-05-29T08:20:21.305Z,24.90
2018-05-29T08:22:49.602Z,24.60
2018-05-29T08:25:17.122Z,24.50
2018-05-29T08:27:44.646Z,24.70
2018-05-29T08:30:12.153Z,24.60
2018-05-29T08:32:39.669Z,24.90
2018-05-29T08:35:07.173Z,25.10
2018-05-29T08:37:35.463Z,25.30
2018-05-29T08:40:02.978Z,25.20
2018-05-29T08:42:30.506Z,25.70
2018-05-29T08:44:58.015Z,25.30
2018-05-29T08:47:25.545Z,25.30
2018-05-29T08:49:53.045Z,25.30
2018-05-29T08:52:21.342Z,25.20
2018-05-29T08:54:48.850Z,25.20
2018-05-29T08:57:16.381Z,24.90
2018-05-29T08:59:43.902Z,24.80
2018-05-29T09:02:12.198Z,25.30
2018-05-29T09:04:39.711Z,25.30
2018-05-29T09:07:07.242Z,25.20
2018-05-29T09:09:34.754Z,25.20
2018-05-29T09:12:03.048Z,24.90
2018-05-29T09:14:30.562Z,24.90
2018-05-29T09:16:58.082Z,25.10
2018-05-29T09:19:25.598Z,24.80
2018-05-29T09:21:53.884Z,24.50
2018-05-29T09:24:22.157Z,24.30
2018-05-29T09:26:50.449Z,24.30
2018-05-29T09:29:17.953Z,24.20
2018-05-29T09:31:45.473Z,24.30
2018-05-29T09:34:12.982Z,24.20
2018-05-29T09:36:40.510Z,24.00
2018-05-29T09:39:08.014Z,23.80
2018-05-29T09:41:36.331Z,23.80
2018-05-29T09:44:03.826Z,23.80
2018-05-29T09:46:31.350Z,23.80
2018-05-29T09:48:58.862Z,23.90
2018-05-29T09:51:27.145Z,24.90
2018-05-29T09:53:55.421Z,24.90
2018-05-29T09:56:23.710Z,24.70
2018-05-29T09:58:51.218Z,24.70
2018-05-29T10:01:18.734Z,24.80
2018-05-29T10:03:46.269Z,25.00
2018-05-29T10:06:14.547Z,25.90
2018-05-29T10:08:42.841Z,26.00
2018-05-29T10:11:10.354Z,26.00
2018-05-29T10:13:37.880Z,25.90
2018-05-29T10:16:05.386Z,25.60
2018-05-29T10:18:32.905Z,25.10
2018-05-29T10:21:00.410Z,24.80
2018-05-29T10:23:28.739Z,24.40
2018-05-29T10:25:56.230Z,24.40
2018-05-29T10:28:23.752Z,24.50
2018-05-29T10:30:51.303Z,24.50
2018-05-29T10:33:19.565Z,24.40
2018-05-29T10:35:47.071Z,24.30
2018-05-29T10:38:14.593Z,24.30
2018-05-29T10:40:42.097Z,24.10
2018-05-29T10:43:09.621Z,24.20
2018-05-29T10:45:37.125Z,24.50
2018-05-29T10:48:05.417Z,24.90
2018-05-29T10:50:33.689Z,25.20
2018-05-29T10:53:01.978Z,25.40
2018-05-29T10:55:29.489Z,25.40
2018-05-29T10:57:57.013Z,25.50
2018-05-29T11:00:24.521Z,25.70
2018-05-29T11:02:52.051Z,25.90
2018-05-29T11:05:19.557Z,26.00
2018-05-29T11:07:47.853Z,25.70
2018-05-29T11:10:15.359Z,25.70
2018-05-29T11:12:42.882Z,25.70
2018-05-29T11:15:10.398Z,25.80
2018-05-29T11:17:38.689Z,25.60
2018-05-29T11:20:06.216Z,25.60
2018-05-29T11:22:33.737Z,25.70
2018-05-29T11:25:01.245Z,25.60
2018-05-29T11:27:28.765Z,25.80
2018-05-29T11:29:56.269Z,25.60
2018-05-29T11:32:24.557Z,25.70
2018-05-29T11:34:52.825Z,25.80
2018-05-29T11:37:21.118Z,26.10
2018-05-29T11:39:48.617Z,26.10
2018-05-29T11:42:16.142Z,26.20
2018-05-29T11:44:43.646Z,26.10
2018-05-29T11:47:11.165Z,25.90
2018-05-29T11:49:38.673Z,25.50
2018-05-29T11:52:06.193Z,25.30
2018-05-29T11:54:34.464Z,25.20
2018-05-29T11:57:01.986Z,25.10
2018-05-29T11:59:30.257Z,25.00
2018-05-29T12:01:57.761Z,24.90
2018-05-29T12:04:25.283Z,25.10
2018-05-29T12:06:53.553Z,25.80
2018-05-29T12:09:21.833Z,26.00
2018-05-29T12:11:50.105Z,26.10
2018-05-29T12:14:18.398Z,25.80
2018-05-29T12:16:45.958Z,25.80
2018-05-29T12:19:14.225Z,25.80
2018-05-29T12:21:41.733Z,25.80
2018-05-29T12:24:09.252Z,26.20
2018-05-29T12:26:36.761Z,26.50
2018-05-29T12:29:04.297Z,26.40
2018-05-29T12:31:31.802Z,26.10
2018-05-29T12:34:00.095Z,26.00
2018-05-29T12:36:27.609Z,25.90
2018-05-29T12:38:55.135Z,25.80
2018-05-29T12:41:22.637Z,26.00
2018-05-29T12:43:50.157Z,26.20
2018-05-29T12:46:17.716Z,26.10
2018-05-29T12:48:45.208Z,26.00
2018-05-29T12:51:12.718Z,26.30
2018-05-29T12:53:40.246Z,26.10
2018-05-29T12:56:08.513Z,25.70
2018-05-29T12:58:36.029Z,25.70
2018-05-29T13:01:03.534Z,25.60
2018-05-29T13:03:31.062Z,25.60
2018-05-29T13:05:58.582Z,25.60
2018-05-29T13:08:26.112Z,25.70
2018-05-29T13:10:54.389Z,25.80
2018-05-29T13:13:22.681Z,26.00
2018-05-29T13:15:50.189Z,26.00
2018-05-29T13:18:17.714Z,26.00
2018-05-29T13:20:45.213Z,25.90
2018-05-29T13:23:12.738Z,25.80
2018-05-29T13:25:40.240Z,25.90
2018-05-29T13:28:07.830Z,26.00
2018-05-29T13:30:35.277Z,26.10
2018-05-29T13:33:03.565Z,26.30
2018-05-29T13:35:31.834Z,26.30
2018-05-29T13:38:00.115Z,26.30
2018-05-29T13:40:27.645Z,26.30
2018-05-29T13:42:55.150Z,26.30
2018-05-29T13:45:22.673Z,26.40
2018-05-29T13:47:50.949Z,26.70
2018-05-29T13:50:19.237Z,26.80
2018-05-29T13:52:47.500Z,26.70
2018-05-29T13:55:15.801Z,26.50
2018-05-29T13:57:43.306Z,26.50
2018-05-29T14:00:10.833Z,26.50
2018-05-29T14:02:38.346Z,26.40
2018-05-29T14:05:05.908Z,26.20
2018-05-29T14:07:33.389Z,26.10
2018-05-29T14:10:01.149Z,26.20
2018-05-29T14:12:28.776Z,26.10
2018-05-29T14:14:56.380Z,25.80
2018-05-29T14:17:23.821Z,26.10
2018-05-29T14:19:52.109Z,25.90
2018-05-29T14:22:19.617Z,25.90
2018-05-29T14:24:47.143Z,25.80
2018-05-29T14:27:14.640Z,25.80
2018-05-29T14:29:42.166Z,25.50
2018-05-29T14:32:09.669Z,25.40
2018-05-29T14:34:37.185Z,25.50
2018-05-29T14:37:04.693Z,25.80
2018-05-29T14:39:32.981Z,25.70
2018-05-29T14:42:01.245Z,25.70
2018-05-29T14:44:28.765Z,25.70
2018-05-29T14:46:56.269Z,25.70
2018-05-29T14:49:24.562Z,25.80
2018-05-29T14:51:52.069Z,25.80
2018-05-29T14:54:19.593Z,26.10
2018-05-29T14:56:47.093Z,25.90
2018-05-29T14:59:14.617Z,25.70
2018-05-29T15:01:42.126Z,25.60
2018-05-29T15:04:10.417Z,25.70
2018-05-29T15:06:38.689Z,25.90
2018-05-29T15:09:07.015Z,26.30
2018-05-29T15:11:34.494Z,26.20
2018-05-29T15:14:02.017Z,26.00
2018-05-29T15:16:29.525Z,26.10
2018-05-29T15:18:57.045Z,26.10
2018-05-29T15:21:24.554Z,26.20
2018-05-29T15:23:52.840Z,26.10
2018-05-29T15:26:21.115Z,26.00
2018-05-29T15:28:49.405Z,25.90
2018-05-29T15:31:16.914Z,25.90
2018-05-29T15:33:44.453Z,26.00
2018-05-29T15:36:11.965Z,26.50
2018-05-29T15:38:40.241Z,26.50
2018-05-29T15:41:08.533Z,26.60
2018-05-29T15:43:36.049Z,26.60
2018-05-29T15:46:03.574Z,26.70
2018-05-29T15:48:31.077Z,26.40
2018-05-29T15:50:58.598Z,26.30
2018-05-29T15:53:26.113Z,26.20
2018-05-29T15:55:53.642Z,26.30
2018-05-29T15:58:21.150Z,26.20
2018-05-29T16:00:48.678Z,26.10
2018-05-29T16:03:16.949Z,26.20
2018-05-29T16:05:45.237Z,26.10
2018-05-29T16:08:13.505Z,26.10
2018-05-29T16:10:41.793Z,26.20
2018-05-29T16:13:10.066Z,26.10
2018-05-29T16:15:38.356Z,26.30
2018-05-29T16:18:05.872Z,26.20
2018-05-29T16:20:33.409Z,26.50
2018-05-29T16:23:00.917Z,26.30
2018-05-29T16:25:29.211Z,26.00
2018-05-29T16:27:56.838Z,26.00
2018-05-29T16:30:24.426Z,25.70
2018-05-29T16:32:52.813Z,25.90
2018-05-29T16:35:20.313Z,25.70
2018-05-29T16:37:47.855Z,25.70
2018-05-29T16:40:15.357Z,25.60
2018-05-29T16:42:43.691Z,25.30
2018-05-29T16:45:11.204Z,25.40
2018-05-29T16:47:39.495Z,25.20
2018-05-29T16:50:07.001Z,25.20
2018-05-29T16:52:34.532Z,25.10
2018-05-29T16:55:02.043Z,25.00
2018-05-29T16:57:30.347Z,24.70
2018-05-29T16:59:57.849Z,24.60
2018-05-29T17:02:25.370Z,24.60
2018-05-29T17:04:52.984Z,24.50
2018-05-29T17:07:21.202Z,24.30
2018-05-29T17:09:48.722Z,24.30
2018-05-29T17:12:16.271Z,24.30
2018-05-29T17:14:43.778Z,24.20
2018-05-29T17:17:11.324Z,24.10
2018-05-29T17:19:38.845Z,24.10
2018-05-29T17:22:06.379Z,24.10
2018-05-29T17:24:33.890Z,24.00
2018-05-29T17:27:02.178Z,24.10
2018-05-29T17:29:29.682Z,24.00
2018-05-29T17:31:57.246Z,24.00
2018-05-29T17:34:24.764Z,24.00
2018-05-29T17:36:52.281Z,24.00
2018-05-29T17:39:19.802Z,24.00
2018-05-29T17:41:47.308Z,23.90
2018-05-29T17:44:15.603Z,24.00
2018-05-29T17:46:43.110Z,24.00
2018-05-29T17:49:11.411Z,23.90
2018-05-29T17:51:38.917Z,23.90
2018-05-29T17:54:06.442Z,23.70
2018-05-29T17:56:34.713Z,23.60
2018-05-29T17:59:02.997Z,23.60
2018-05-29T18:01:31.273Z,23.50
2018-05-29T18:03:59.566Z,23.40
2018-05-29T18:06:27.070Z,23.40
2018-05-29T18:08:54.592Z,23.30
2018-05-29T18:11:22.117Z,23.20
2018-05-29T18:13:50.414Z,22.90
2018-05-29T18:16:17.925Z,22.90
2018-05-29T18:18:45.441Z,23.00
2018-05-29T18:21:12.941Z,22.90
2018-05-29T18:23:40.465Z,22.80
2018-05-29T18:26:07.968Z,22.70
2018-05-29T18:28:35.494Z,22.70
2018-05-29T18:31:02.996Z,22.60
2018-05-29T18:33:31.294Z,22.50
2018-05-29T18:35:58.804Z,22.50
2018-05-29T18:38:26.362Z,22.50
2018-05-29T18:40:53.854Z,22.40
2018-05-29T18:43:22.145Z,22.30
2018-05-29T18:45:49.654Z,22.30
2018-05-29T18:48:17.941Z,22.20
2018-05-29T18:50:45.449Z,22.20
2018-05-29T18:53:12.969Z,22.20
2018-05-29T18:55:40.469Z,22.10
2018-05-29T18:58:07.994Z,22.00
2018-05-29T19:00:36.260Z,21.90
2018-05-29T19:03:03.781Z,21.80
2018-05-29T19:05:31.285Z,21.90
2018-05-29T19:07:59.580Z,22.00
2018-05-29T19:10:27.090Z,22.00
2018-05-29T19:12:54.608Z,21.90
2018-05-29T19:15:22.222Z,21.80
2018-05-29T19:17:49.741Z,21.80
2018-05-29T19:20:17.246Z,21.70
2018-05-29T19:22:44.761Z,21.60
2018-05-29T19:25:12.259Z,21.50
2018-05-29T19:27:39.795Z,21.50
2018-05-29T19:30:07.297Z,21.50
2018-05-29T19:32:35.569Z,21.10
2018-05-29T19:35:03.857Z,21.10
2018-05-29T19:37:32.125Z,21.10
2018-05-29T19:40:00.408Z,21.10
2018-05-29T19:42:28.677Z,21.10
2018-05-29T19:44:56.965Z,21.10
2018-05-29T19:47:24.470Z,21.10
2018-05-29T19:49:51.998Z,21.00
2018-05-29T19:52:19.500Z,21.00
2018-05-29T19:54:47.373Z,20.90
2018-05-29T19:57:14.886Z,20.90
2018-05-29T19:59:42.444Z,20.80
2018-05-29T20:02:09.955Z,20.80
2018-05-29T20:04:37.481Z,20.80
2018-05-29T20:07:04.986Z,20.70
2018-05-29T20:09:33.282Z,20.70
2018-05-29T20:12:01.630Z,20.60
2018-05-29T20:14:29.922Z,20.60
2018-05-29T20:16:58.197Z,20.50
2018-05-29T20:19:26.489Z,20.40
2018-05-29T20:21:53.995Z,20.40
2018-05-29T20:24:21.521Z,20.30
2018-05-29T20:26:49.026Z,20.30
2018-05-29T20:29:16.554Z,20.30
2018-05-29T20:31:44.145Z,20.30
2018-05-29T20:34:11.721Z,20.30
2018-05-29T20:36:40.141Z,20.30
2018-05-29T20:39:07.637Z,20.30
2018-05-29T20:41:35.147Z,20.30
2018-05-29T20:44:02.686Z,20.20
2018-05-29T20:46:30.228Z,20.20
2018-05-29T20:48:58.520Z,19.90
2018-05-29T20:51:26.029Z,19.90
2018-05-29T20:53:53.555Z,19.80
2018-05-29T20:56:21.073Z,19.70
2018-05-29T20:58:49.374Z,19.50
2018-05-29T21:01:16.877Z,19.50
2018-05-29T21:03:44.408Z,19.40
2018-05-29T21:06:11.951Z,19.10
2018-05-29T21:08:39.540Z,19.00
2018-05-29T21:11:07.397Z,18.80
2018-05-29T21:13:34.984Z,18.60
2018-05-29T21:16:02.521Z,18.60
2018-05-29T21:18:30.048Z,18.50
2018-05-29T21:20:58.320Z,18.40
2018-05-29T21:23:26.625Z,18.30
2018-05-29T21:25:54.133Z,18.30
2018-05-29T21:28:21.708Z,18.30
2018-05-29T21:30:49.197Z,18.30
2018-05-29T21:33:17.025Z,18.20
2018-05-29T21:35:44.549Z,18.10
2018-05-29T21:38:12.053Z,18.00
2018-05-29T21:40:40.348Z,18.00
2018-05-29T21:43:07.859Z,18.00
2018-05-29T21:45:35.381Z,18.00
2018-05-29T21:48:02.889Z,17.90
2018-05-29T21:50:30.416Z,17.80
2018-05-29T21:52:57.926Z,17.80
2018-05-29T21:55:26.214Z,17.70
2018-05-29T21:57:53.722Z,17.70
2018-05-29T22:00:21.244Z,17.70
2018-05-29T22:02:48.751Z,17.60
2018-05-29T22:05:16.276Z,17.50
2018-05-29T22:07:43.781Z,17.60
2018-05-29T22:10:12.069Z,17.70
2018-05-29T22:12:40.625Z,17.70
2018-05-29T22:15:08.149Z,17.70
2018-05-29T22:17:35.675Z,17.70
2018-05-29T22:20:03.206Z,17.80
2018-05-29T22:22:30.713Z,17.80
2018-05-29T22:24:58.233Z,17.80
2018-05-29T22:27:26.512Z,17.80
2018-05-29T22:29:54.843Z,17.80
2018-05-29T22:32:22.362Z,17.80
2018-05-29T22:34:49.880Z,17.70
2018-05-29T22:37:17.412Z,17.80
2018-05-29T22:39:44.938Z,17.70
2018-05-29T22:42:12.441Z,17.60
2018-05-29T22:44:40.230Z,17.60
2018-05-29T22:47:08.250Z,17.50
2018-05-29T22:49:35.772Z,17.40
2018-05-29T22:52:04.050Z,17.30
2018-05-29T22:54:32.341Z,17.10
2018-05-29T22:56:59.849Z,17.10
2018-05-29T22:59:27.370Z,17.10
2018-05-29T23:01:54.881Z,17.00
2018-05-29T23:04:22.406Z,17.00
2018-05-29T23:06:49.912Z,16.90
2018-05-29T23:09:18.209Z,17.00
2018-05-29T23:11:45.713Z,16.90
2018-05-29T23:14:13.229Z,16.90
2018-05-29T23:16:40.758Z,16.90
2018-05-29T23:19:09.049Z,16.70
2018-05-29T23:21:37.313Z,16.70
2018-05-29T23:24:05.601Z,16.60
2018-05-29T23:26:33.873Z,16.60
2018-05-29T23:29:02.169Z,16.50
2018-05-29T23:31:29.678Z,16.50
2018-05-29T23:33:57.185Z,16.50
2018-05-29T23:36:24.701Z,16.50
2018-05-29T23:38:52.205Z,16.40
2018-05-29T23:41:19.742Z,16.40
2018-05-29T23:43:48.100Z,16.20
2018-05-29T23:46:15.629Z,16.20
2018-05-29T23:48:43.145Z,16.20
2018-05-29T23:51:11.697Z,16.10
2018-05-29T23:53:39.202Z,16.10
2018-05-29T23:56:06.721Z,16.20
2018-05-29T23:58:34.221Z,16.10
